createdAt,value
2023-03-16T00:02:04.766Z,4.10
2023-03-16T00:04:32.516Z,4.25
2023-03-16T00:06:59.453Z,4.30
2023-03-16T00:09:31.322Z,4.30
2023-03-16T00:11:59.642Z,4.45
2023-03-16T00:14:27.163Z,4.28
2023-03-16T00:16:54.313Z,4.50
2023-03-16T00:19:25.556Z,3.92
2023-03-16T00:21:52.862Z,3.85
2023-03-16T00:24:20.494Z,4.03
2023-03-16T00:26:48.430Z,4.35
2023-03-16T00:29:15.388Z,4.10
2023-03-16T00:31:45.623Z,3.60
2023-03-16T00:34:13.048Z,3.67
2023-03-16T00:36:40.309Z,4.32
2023-03-16T00:39:08.101Z,4.30
2023-03-16T00:41:38.224Z,4.20
2023-03-16T00:44:06.365Z,4.30
2023-03-16T00:46:33.396Z,4.38
2023-03-16T00:49:02.817Z,3.97
2023-03-16T00:51:33.955Z,4.47
2023-03-16T00:54:01.463Z,3.90
2023-03-16T00:56:29.085Z,4.63
2023-03-16T00:58:57.962Z,4.40
2023-03-16T01:01:25.427Z,4.22
2023-03-16T01:03:52.418Z,4.90
2023-03-16T01:06:20.635Z,4.38
2023-03-16T01:08:47.862Z,4.75
2023-03-16T01:11:17.905Z,4.10
2023-03-16T01:13:47.289Z,4.30
2023-03-16T01:16:15.311Z,4.43
2023-03-16T01:18:42.544Z,4.10
2023-03-16T01:21:10.278Z,4.00
2023-03-16T01:23:37.595Z,4.03
2023-03-16T01:26:05.354Z,4.55
2023-03-16T01:28:34.281Z,3.97
2023-03-16T01:31:08.322Z,3.90
2023-03-16T01:33:36.382Z,3.95
2023-03-16T01:36:10.745Z,4.22
2023-03-16T01:38:37.995Z,3.97
2023-03-16T01:41:05.524Z,3.92
2023-03-16T01:43:34.552Z,4.50
2023-03-16T01:46:08.010Z,4.70
2023-03-16T01:48:37.891Z,3.95
2023-03-16T01:51:15.070Z,4.25
2023-03-16T01:53:45.337Z,3.97
2023-03-16T01:56:17.068Z,4.15
2023-03-16T01:58:45.169Z,3.97
2023-03-16T02:01:14.305Z,3.92
2023-03-16T02:03:47.467Z,4.47
2023-03-16T02:06:19.693Z,4.05
2023-03-16T02:08:49.594Z,3.58
2023-03-16T02:11:22.655Z,4.15
2023-03-16T02:13:50.073Z,4.05
2023-03-16T02:16:19.619Z,3.65
2023-03-16T02:18:47.746Z,3.80
2023-03-16T02:21:45.154Z,4.10
2023-03-16T02:24:12.326Z,3.92
2023-03-16T02:26:53.620Z,3.92
2023-03-16T02:29:58.335Z,4.00
2023-03-16T02:32:28.076Z,3.10
2023-03-16T02:34:56.329Z,3.88
2023-03-16T02:37:23.544Z,3.13
2023-03-16T02:39:50.502Z,3.55
2023-03-16T02:42:19.966Z,4.20
2023-03-16T02:44:52.261Z,3.90
2023-03-16T02:47:29.050Z,3.85
2023-03-16T02:49:56.013Z,4.10
2023-03-16T02:52:22.810Z,4.05
2023-03-16T02:54:49.928Z,4.03
2023-03-16T02:57:17.072Z,3.80
2023-03-16T02:59:43.885Z,3.83
2023-03-16T03:02:11.437Z,4.30
2023-03-16T03:04:38.291Z,4.43
2023-03-16T03:07:05.520Z,3.65
2023-03-16T03:09:33.045Z,3.70
2023-03-16T03:12:00.477Z,3.80
2023-03-16T03:14:28.683Z,3.83
2023-03-16T03:16:56.073Z,4.30
2023-03-16T03:19:23.334Z,4.35
2023-03-16T03:21:50.788Z,4.28
2023-03-16T03:24:18.862Z,3.70
2023-03-16T03:26:45.893Z,3.83
2023-03-16T03:29:12.989Z,3.70
2023-03-16T03:31:40.010Z,3.80
2023-03-16T03:34:07.064Z,4.03
2023-03-16T03:36:35.372Z,3.70
2023-03-16T03:39:05.233Z,3.67
2023-03-16T03:41:33.692Z,3.80
2023-03-16T03:44:01.052Z,3.45
2023-03-16T03:46:28.240Z,3.67
2023-03-16T03:48:55.371Z,3.88
2023-03-16T03:51:22.346Z,3.30
2023-03-16T03:53:49.221Z,3.80
2023-03-16T03:56:16.941Z,3.40
2023-03-16T03:58:43.827Z,3.97
2023-03-16T04:01:11.127Z,3.90
2023-03-16T04:03:38.120Z,4.00
2023-03-16T04:06:07.320Z,3.90
2023-03-16T04:08:35.478Z,3.95
2023-03-16T04:11:05.618Z,4.10
2023-03-16T04:13:32.795Z,3.70
2023-03-16T04:16:04.610Z,4.40
2023-03-16T04:18:39.196Z,3.78
2023-03-16T04:21:07.905Z,3.28
2023-03-16T04:23:35.464Z,3.50
2023-03-16T04:26:02.618Z,3.42
2023-03-16T04:28:29.489Z,3.60
2023-03-16T04:31:01.258Z,3.28
2023-03-16T04:33:28.840Z,3.10
2023-03-16T04:35:59.553Z,3.63
2023-03-16T04:38:26.738Z,3.55
2023-03-16T04:40:55.185Z,3.75
2023-03-16T04:43:22.948Z,3.15
2023-03-16T04:45:50.988Z,3.15
2023-03-16T04:48:18.566Z,3.05
2023-03-16T04:50:48.508Z,3.05
2023-03-16T04:53:15.639Z,2.90
2023-03-16T04:55:42.519Z,2.95
2023-03-16T04:58:09.436Z,2.30
2023-03-16T05:00:36.744Z,2.55
2023-03-16T05:03:04.515Z,2.30
2023-03-16T05:05:31.600Z,2.33
2023-03-16T05:07:58.871Z,2.17
2023-03-16T05:10:26.865Z,2.35
2023-03-16T05:12:54.112Z,2.40
2023-03-16T05:15:21.405Z,2.70
2023-03-16T05:17:48.721Z,2.60
2023-03-16T05:20:16.447Z,2.22
2023-03-16T05:22:51.137Z,2.60
2023-03-16T05:25:19.619Z,2.50
2023-03-16T05:27:51.415Z,2.08
2023-03-16T05:30:19.405Z,2.20
2023-03-16T05:32:46.907Z,2.58
2023-03-16T05:35:14.486Z,2.63
2023-03-16T05:37:42.538Z,2.35
2023-03-16T05:40:17.352Z,2.47
2023-03-16T05:42:48.803Z,2.83
2023-03-16T05:45:17.640Z,2.60
2023-03-16T05:47:45.078Z,2.83
2023-03-16T05:50:14.480Z,2.42
2023-03-16T05:52:43.183Z,2.63
2023-03-16T05:55:11.057Z,2.05
2023-03-16T05:57:38.495Z,2.60
2023-03-16T06:00:18.483Z,2.35
2023-03-16T06:02:54.187Z,2.78
2023-03-16T06:05:23.090Z,1.90
2023-03-16T06:07:50.474Z,2.15
2023-03-16T06:10:20.736Z,2.33
2023-03-16T06:12:47.543Z,2.15
2023-03-16T06:15:14.517Z,2.20
2023-03-16T06:17:42.101Z,2.08
2023-03-16T06:20:13.106Z,2.15
2023-03-16T06:22:41.724Z,2.45
2023-03-16T06:25:10.479Z,2.05
2023-03-16T06:27:37.841Z,1.98
2023-03-16T06:30:07.279Z,2.17
2023-03-16T06:35:24.522Z,2.25
2023-03-16T06:37:51.648Z,2.30
2023-03-16T06:40:18.707Z,2.17
2023-03-16T06:42:47.055Z,2.33
2023-03-16T06:45:16.702Z,2.20
2023-03-16T06:47:44.666Z,2.10
2023-03-16T06:50:12.044Z,1.98
2023-03-16T06:52:39.502Z,2.08
2023-03-16T06:55:07.133Z,2.00
2023-03-16T06:57:34.933Z,2.10
2023-03-16T07:00:04.337Z,2.25
2023-03-16T07:02:32.430Z,1.88
2023-03-16T07:04:59.391Z,2.00
2023-03-16T07:07:27.320Z,2.00
2023-03-16T07:09:55.731Z,2.00
2023-03-16T07:12:22.975Z,2.22
2023-03-16T07:14:53.011Z,1.92
2023-03-16T07:17:21.850Z,2.10
2023-03-16T07:19:48.680Z,2.17
2023-03-16T07:22:15.498Z,2.00
2023-03-16T07:24:43.788Z,2.13
2023-03-16T07:27:12.436Z,1.88
2023-03-16T07:29:39.451Z,1.92
2023-03-16T07:32:06.790Z,1.85
2023-03-16T07:34:33.742Z,1.70
2023-03-16T07:37:00.856Z,2.22
2023-03-16T07:39:28.655Z,2.17
2023-03-16T07:41:56.143Z,1.90
2023-03-16T07:44:23.058Z,2.22
2023-03-16T07:46:50.047Z,1.88
2023-03-16T07:49:17.022Z,2.08
2023-03-16T07:51:43.907Z,1.80
2023-03-16T07:54:10.866Z,2.08
2023-03-16T07:56:48.343Z,2.00
2023-03-16T07:59:16.539Z,1.92
2023-03-16T08:01:43.459Z,1.75
2023-03-16T08:04:12.583Z,2.20
2023-03-16T08:06:39.475Z,2.50
2023-03-16T08:09:06.335Z,1.80
2023-03-16T08:11:33.348Z,2.10
2023-03-16T08:14:00.425Z,2.00
2023-03-16T08:16:28.471Z,2.28
2023-03-16T08:18:58.631Z,2.45
2023-03-16T08:21:26.257Z,1.85
2023-03-16T08:23:53.128Z,2.00
2023-03-16T08:26:23.525Z,1.92
2023-03-16T08:28:54.450Z,2.05
2023-03-16T08:31:22.192Z,1.70
2023-03-16T08:33:49.965Z,1.73
2023-03-16T08:36:18.677Z,2.13
2023-03-16T08:39:03.736Z,1.63
2023-03-16T08:41:37.002Z,2.13
2023-03-16T08:44:03.994Z,1.60
2023-03-16T08:46:31.084Z,2.53
2023-03-16T08:48:58.252Z,1.75
2023-03-16T08:51:26.035Z,2.00
2023-03-16T08:53:53.770Z,1.60
2023-03-16T08:56:20.695Z,1.77
2023-03-16T08:58:48.376Z,1.85
2023-03-16T09:01:20.355Z,1.80
2023-03-16T09:03:47.630Z,1.80
2023-03-16T09:06:17.103Z,1.90
2023-03-16T09:08:45.581Z,2.53
2023-03-16T09:11:17.754Z,1.75
2023-03-16T09:13:45.249Z,1.85
2023-03-16T09:16:13.899Z,2.42
2023-03-16T09:18:42.184Z,1.90
2023-03-16T09:21:13.142Z,1.77
2023-03-16T09:23:41.871Z,1.60
2023-03-16T09:26:09.588Z,2.03
2023-03-16T09:28:38.934Z,1.95
2023-03-16T09:31:07.569Z,1.80
2023-03-16T09:33:35.712Z,2.08
2023-03-16T09:36:03.322Z,1.92
2023-03-16T09:38:30.823Z,1.95
2023-03-16T09:41:06.768Z,1.80
2023-03-16T09:43:58.376Z,1.80
2023-03-16T09:46:49.637Z,2.08
2023-03-16T09:49:20.007Z,2.10
2023-03-16T09:52:00.812Z,1.60
2023-03-16T09:54:40.286Z,1.70
2023-03-16T09:57:47.314Z,2.35
2023-03-16T10:00:27.589Z,2.00
2023-03-16T10:03:39.422Z,1.80
2023-03-16T10:06:11.701Z,1.58
2023-03-16T10:08:45.345Z,1.73
2023-03-16T10:11:15.082Z,2.10
2023-03-16T10:13:42.596Z,2.03
2023-03-16T10:16:25.974Z,1.65
2023-03-16T10:19:21.840Z,1.50
2023-03-16T10:21:54.538Z,1.90
2023-03-16T10:24:25.377Z,2.05
2023-03-16T10:27:01.225Z,2.35
2023-03-16T10:29:37.912Z,1.85
2023-03-16T10:32:16.631Z,1.60
2023-03-16T10:34:49.324Z,2.03
2023-03-16T10:37:16.214Z,1.90
2023-03-16T10:39:43.264Z,1.60
2023-03-16T10:42:21.398Z,1.90
2023-03-16T10:44:48.613Z,2.00
2023-03-16T10:47:28.773Z,2.22
2023-03-16T10:49:55.817Z,1.95
2023-03-16T10:52:23.546Z,1.88
2023-03-16T10:54:55.928Z,2.15
2023-03-16T10:57:36.454Z,1.77
2023-03-16T11:00:37.468Z,1.80
2023-03-16T11:03:23.080Z,1.80
2023-03-16T11:06:33.577Z,1.80
2023-03-16T11:09:22.878Z,1.73
2023-03-16T11:11:50.970Z,2.08
2023-03-16T11:14:22.573Z,2.17
2023-03-16T11:16:52.829Z,2.17
2023-03-16T11:19:31.474Z,2.30
2023-03-16T11:22:12.643Z,2.20
2023-03-16T11:25:06.605Z,1.83
2023-03-16T11:27:45.572Z,3.90
2023-03-16T11:30:29.310Z,1.85
2023-03-16T11:32:57.396Z,2.10
2023-03-16T11:36:00.846Z,1.70
2023-03-16T11:39:06.004Z,2.00
2023-03-16T11:41:33.173Z,1.83
2023-03-16T11:44:30.089Z,2.20
2023-03-16T11:47:05.633Z,1.70
2023-03-16T11:49:59.197Z,2.28
2023-03-16T11:52:40.787Z,2.25
2023-03-16T11:55:54.902Z,1.90
2023-03-16T11:58:43.018Z,2.60
2023-03-16T12:01:23.286Z,1.95
2023-03-16T12:04:02.467Z,2.22
2023-03-16T12:06:47.207Z,1.90
2023-03-16T12:09:28.882Z,2.00
2023-03-16T12:12:08.095Z,1.85
2023-03-16T12:14:45.211Z,2.50
2023-03-16T12:17:27.563Z,2.15
2023-03-16T12:20:00.286Z,2.30
2023-03-16T12:22:38.771Z,2.15
2023-03-16T12:25:17.296Z,2.03
2023-03-16T12:27:46.325Z,1.70
2023-03-16T12:30:25.696Z,2.08
2023-03-16T12:33:08.766Z,1.98
2023-03-16T12:35:41.658Z,2.22
2023-03-16T12:38:23.824Z,2.38
2023-03-16T12:41:17.966Z,1.75
2023-03-16T12:44:23.283Z,2.20
2023-03-16T12:46:56.603Z,1.98
2023-03-16T12:49:28.753Z,2.10
2023-03-16T12:52:01.592Z,2.22
2023-03-16T12:54:28.944Z,2.53
2023-03-16T12:57:09.753Z,2.30
2023-03-16T12:59:46.669Z,2.10
2023-03-16T13:02:26.483Z,1.83
2023-03-16T13:05:11.160Z,2.28
2023-03-16T13:07:46.528Z,2.00
2023-03-16T13:10:16.483Z,1.77
2023-03-16T13:12:44.233Z,2.10
2023-03-16T13:15:21.365Z,2.08
2023-03-16T13:17:50.924Z,2.22
2023-03-16T13:20:31.969Z,2.30
2023-03-16T13:23:27.502Z,1.90
2023-03-16T13:26:00.489Z,2.10
2023-03-16T13:28:35.260Z,2.38
2023-03-16T13:31:02.924Z,1.70
2023-03-16T13:33:38.283Z,2.00
2023-03-16T13:36:06.574Z,2.05
2023-03-16T13:38:33.719Z,2.13
2023-03-16T13:41:14.126Z,2.38
2023-03-16T13:43:44.334Z,2.10
2023-03-16T13:46:22.538Z,2.00
2023-03-16T13:48:50.443Z,2.22
2023-03-16T13:51:22.726Z,2.10
2023-03-16T13:53:51.099Z,2.00
2023-03-16T13:56:27.166Z,2.03
2023-03-16T13:58:57.074Z,2.22
2023-03-16T14:01:29.519Z,2.17
2023-03-16T14:04:03.407Z,2.20
2023-03-16T14:06:31.508Z,2.15
2023-03-16T14:09:04.985Z,2.50
2023-03-16T14:11:32.282Z,2.50
2023-03-16T14:14:00.476Z,2.58
2023-03-16T14:16:29.903Z,2.80
2023-03-16T14:19:19.300Z,2.50
2023-03-16T14:21:46.994Z,2.30
2023-03-16T14:24:22.903Z,2.45
2023-03-16T14:26:49.889Z,2.33
2023-03-16T14:29:31.110Z,2.30
2023-03-16T14:32:00.131Z,2.30
2023-03-16T14:34:35.457Z,2.10
2023-03-16T14:37:13.561Z,2.75
2023-03-16T14:39:41.272Z,2.40
2023-03-16T14:42:30.706Z,2.45
2023-03-16T14:45:00.052Z,3.05
2023-03-16T14:47:31.054Z,2.55
2023-03-16T14:50:04.573Z,2.70
2023-03-16T14:52:33.772Z,3.00
2023-03-16T14:55:03.707Z,2.30
2023-03-16T14:57:31.397Z,2.58
2023-03-16T14:59:58.416Z,2.90
2023-03-16T15:02:32.924Z,2.80
2023-03-16T15:05:02.904Z,2.67
2023-03-16T15:07:40.747Z,2.70
2023-03-16T15:10:15.401Z,2.33
2023-03-16T15:12:50.487Z,2.70
2023-03-16T15:15:19.694Z,2.67
2023-03-16T15:17:47.196Z,2.70
2023-03-16T15:20:16.632Z,2.35
2023-03-16T15:22:44.990Z,2.15
2023-03-16T15:25:36.315Z,2.25
2023-03-16T15:28:24.197Z,2.80
2023-03-16T15:30:53.733Z,2.25
2023-03-16T15:33:22.082Z,2.50
2023-03-16T15:35:50.922Z,2.45
2023-03-16T15:38:31.383Z,2.53
2023-03-16T15:40:59.472Z,3.00
2023-03-16T15:43:29.098Z,3.05
2023-03-16T15:45:57.571Z,3.75
2023-03-16T15:48:25.477Z,2.78
2023-03-16T15:51:01.265Z,2.97
2023-03-16T15:53:53.430Z,3.92
2023-03-16T15:56:29.277Z,2.97
2023-03-16T15:59:00.472Z,3.50
2023-03-16T16:01:37.766Z,3.88
2023-03-16T16:04:12.429Z,3.20
2023-03-16T16:06:39.540Z,3.70
2023-03-16T16:09:06.506Z,3.40
2023-03-16T16:11:33.520Z,16.70
2023-03-16T16:14:00.680Z,5.50
2023-03-16T16:16:29.437Z,3.53
2023-03-16T16:18:56.955Z,3.50
2023-03-16T16:21:28.962Z,4.80
2023-03-16T16:23:55.939Z,3.55
2023-03-16T16:26:55.275Z,3.95
2023-03-16T16:29:32.120Z,3.70
2023-03-16T16:31:59.648Z,6.53
2023-03-16T16:34:27.318Z,5.60
2023-03-16T16:36:56.174Z,3.75
2023-03-16T16:39:24.012Z,4.15
2023-03-16T16:41:54.167Z,3.35
2023-03-16T16:44:24.482Z,4.25
2023-03-16T16:46:52.086Z,3.65
2023-03-16T16:49:28.473Z,3.67
2023-03-16T16:51:56.114Z,5.07
2023-03-16T16:54:29.746Z,4.05
2023-03-16T16:56:59.076Z,4.28
2023-03-16T16:59:29.385Z,3.80
2023-03-16T17:01:57.469Z,4.00
2023-03-16T17:04:27.392Z,4.07
2023-03-16T17:06:58.827Z,4.97
2023-03-16T17:09:27.850Z,4.28
2023-03-16T17:11:56.346Z,4.20
2023-03-16T17:14:24.098Z,5.97
2023-03-16T17:16:52.040Z,5.00
2023-03-16T17:19:23.335Z,3.88
2023-03-16T17:21:51.824Z,3.67
2023-03-16T17:24:18.807Z,4.10
2023-03-16T17:26:55.079Z,3.80
2023-03-16T17:29:35.866Z,4.32
2023-03-16T17:32:07.222Z,3.85
2023-03-16T17:34:34.478Z,3.90
2023-03-16T17:37:02.065Z,4.28
2023-03-16T17:39:34.162Z,4.47
2023-03-16T17:42:23.547Z,4.10
2023-03-16T17:44:52.919Z,4.95
2023-03-16T17:47:25.301Z,3.95
2023-03-16T17:49:52.845Z,4.50
2023-03-16T17:52:25.906Z,3.75
2023-03-16T17:54:54.279Z,4.22
2023-03-16T17:57:32.082Z,4.32
2023-03-16T18:00:01.799Z,3.95
2023-03-16T18:02:54.993Z,4.05
2023-03-16T18:05:25.364Z,4.00
2023-03-16T18:07:53.607Z,4.28
2023-03-16T18:10:24.642Z,4.00
2023-03-16T18:13:04.452Z,4.28
2023-03-16T18:15:36.578Z,4.70
2023-03-16T18:18:07.835Z,4.85
2023-03-16T18:20:36.686Z,4.60
2023-03-16T18:23:25.056Z,4.55
2023-03-16T18:25:54.707Z,5.32
2023-03-16T18:28:23.245Z,4.65
2023-03-16T18:30:52.884Z,3.97
2023-03-16T18:33:27.633Z,4.40
2023-03-16T18:35:57.226Z,5.40
2023-03-16T18:38:30.707Z,4.97
2023-03-16T18:40:59.929Z,4.93
2023-03-16T18:43:27.688Z,4.00
2023-03-16T18:45:55.529Z,4.60
2023-03-16T18:48:33.132Z,4.18
2023-03-16T18:51:01.084Z,4.38
2023-03-16T18:53:28.976Z,4.45
2023-03-16T18:55:57.533Z,4.63
2023-03-16T18:58:25.526Z,4.95
2023-03-16T19:00:57.722Z,4.90
2023-03-16T19:03:39.211Z,4.32
2023-03-16T19:06:07.650Z,5.28
2023-03-16T19:08:34.742Z,4.97
2023-03-16T19:11:02.393Z,4.72
2023-03-16T19:13:29.825Z,4.35
2023-03-16T19:15:57.976Z,4.47
2023-03-16T19:18:26.332Z,4.90
2023-03-16T19:20:55.258Z,4.82
2023-03-16T19:23:23.606Z,4.15
2023-03-16T19:25:51.856Z,4.32
2023-03-16T19:28:36.746Z,4.13
2023-03-16T19:31:18.182Z,4.60
2023-03-16T19:33:45.513Z,4.35
2023-03-16T19:36:18.333Z,4.07
2023-03-16T19:38:50.319Z,4.47
2023-03-16T19:41:23.490Z,4.20
2023-03-16T19:43:51.759Z,4.40
2023-03-16T19:46:18.744Z,4.13
2023-03-16T19:48:45.991Z,4.40
2023-03-16T19:51:14.476Z,3.75
2023-03-16T19:53:42.410Z,3.63
2023-03-16T19:56:17.326Z,3.65
2023-03-16T19:58:48.005Z,3.33
2023-03-16T20:01:22.050Z,3.33
2023-03-16T20:03:51.731Z,3.72
2023-03-16T20:06:21.797Z,3.38
2023-03-16T20:08:49.833Z,3.60
2023-03-16T20:11:28.097Z,3.85
2023-03-16T20:13:56.215Z,3.42
2023-03-16T20:16:28.429Z,3.58
2023-03-16T20:19:03.250Z,3.70
2023-03-16T20:21:30.693Z,2.92
2023-03-16T20:23:57.653Z,2.83
2023-03-16T20:26:31.197Z,2.70
2023-03-16T20:29:01.727Z,2.60
2023-03-16T20:31:31.458Z,2.83
2023-03-16T20:33:59.218Z,2.85
2023-03-16T20:36:27.429Z,2.65
2023-03-16T20:38:54.523Z,2.75
2023-03-16T20:41:30.423Z,2.70
2023-03-16T20:43:59.778Z,2.30
2023-03-16T20:46:29.832Z,2.95
2023-03-16T20:48:57.453Z,2.50
2023-03-16T20:51:24.716Z,2.53
2023-03-16T20:53:51.640Z,2.40
2023-03-16T20:56:25.415Z,2.13
2023-03-16T20:58:54.718Z,2.60
2023-03-16T21:01:23.564Z,2.45
2023-03-16T21:03:55.228Z,2.92
2023-03-16T21:06:31.839Z,2.42
2023-03-16T21:09:00.923Z,2.53
2023-03-16T21:11:35.944Z,2.20
2023-03-16T21:14:04.546Z,2.47
2023-03-16T21:16:31.814Z,2.40
2023-03-16T21:18:59.049Z,2.67
2023-03-16T21:21:26.286Z,2.15
2023-03-16T21:23:53.366Z,2.47
2023-03-16T21:26:26.468Z,2.00
2023-03-16T21:28:59.263Z,2.42
2023-03-16T21:31:27.367Z,2.30
2023-03-16T21:33:55.196Z,2.40
2023-03-16T21:36:26.215Z,2.20
2023-03-16T21:38:54.333Z,1.90
2023-03-16T21:41:21.680Z,2.13
2023-03-16T21:43:50.172Z,2.22
2023-03-16T21:46:24.386Z,2.25
2023-03-16T21:48:54.775Z,2.20
2023-03-16T21:51:25.574Z,2.25
2023-03-16T21:53:53.519Z,2.58
2023-03-16T21:56:23.916Z,1.88
2023-03-16T21:58:51.107Z,2.20
2023-03-16T22:01:22.458Z,2.47
2023-03-16T22:03:53.371Z,2.33
2023-03-16T22:06:22.448Z,2.35
2023-03-16T22:08:51.212Z,2.42
2023-03-16T22:11:24.014Z,2.42
2023-03-16T22:13:52.124Z,2.55
2023-03-16T22:16:21.906Z,2.13
2023-03-16T22:18:52.117Z,2.28
2023-03-16T22:21:38.204Z,2.00
2023-03-16T22:24:20.357Z,2.15
2023-03-16T22:26:49.067Z,1.98
2023-03-16T22:29:30.715Z,2.58
2023-03-16T22:32:03.123Z,2.38
2023-03-16T22:34:38.902Z,2.38
2023-03-16T22:37:06.677Z,2.40
2023-03-16T22:39:37.794Z,2.40
2023-03-16T22:42:26.182Z,2.13
2023-03-16T22:44:56.789Z,2.38
2023-03-16T22:47:26.766Z,2.53
2023-03-16T22:49:54.160Z,2.53
2023-03-16T22:52:25.723Z,2.67
2023-03-16T22:54:53.039Z,2.78
2023-03-16T22:57:20.565Z,2.22
2023-03-16T22:59:48.703Z,2.75
2023-03-16T23:02:16.310Z,2.45
2023-03-16T23:04:46.107Z,2.58
2023-03-16T23:07:14.468Z,2.30
2023-03-16T23:09:41.381Z,2.38
2023-03-16T23:12:19.473Z,2.70
2023-03-16T23:14:46.377Z,2.58
2023-03-16T23:17:18.784Z,2.63
2023-03-16T23:19:48.082Z,2.00
2023-03-16T23:22:15.605Z,2.10
2023-03-16T23:24:43.292Z,2.50
2023-03-16T23:27:22.322Z,2.38
2023-03-16T23:29:49.478Z,2.35
2023-03-16T23:32:19.639Z,2.40
2023-03-16T23:34:46.530Z,2.83
2023-03-16T23:37:13.479Z,2.60
2023-03-16T23:39:40.287Z,2.70
2023-03-16T23:42:07.570Z,2.90
2023-03-16T23:44:34.581Z,2.35
2023-03-16T23:47:01.440Z,3.00
2023-03-16T23:49:33.375Z,2.70
2023-03-16T23:52:01.775Z,2.70
2023-03-16T23:54:31.458Z,2.90
2023-03-16T23:56:58.856Z,3.15
2023-03-16T23:59:26.766Z,2.75
